Takaya — VG2773 — position and weather

sailwx.info

Track history (hours):
 
Tides and Currents Weather Stations Pressure Air Temp Water Temp Dewpoint Dewpoint Depression Visibility Wind Speed Wind Dir Waves Ship Positions

Takaya

Last reported at 2018-Apr-21 23:01 UTC. Time now 2018-Apr-21 23:17 UTC.
Position N 49°18' W 123°07'.

; draft 1.4 m.

Type: Port tender. MMSI: 316014014.

Date/timePositionNaut miles runAvg speedWind from/ knotsBaromVisibWave heightAir tempDewpointWater temp
2018-Apr-21 23:01N 49°18' W 123°07'2 3.0
2018-Apr-21 22:30N 49°17' W 123°05'1 1.4
2018-Apr-21 22:00N 49°17' W 123°06'0 0.0
2018-Apr-21 21:30N 49°17' W 123°06'0 0.1
2018-Apr-21 21:00N 49°17' W 123°06'0 0.0
2018-Apr-21 20:31N 49°17' W 123°06'0 0.0
2018-Apr-21 20:01N 49°17' W 123°06'0 0.0
2018-Apr-21 19:30N 49°17' W 123°06'0 0.0
2018-Apr-21 19:00N 49°17' W 123°06'0 0.0
2018-Apr-21 18:30N 49°17' W 123°06'1 2.1
2018-Apr-21 18:00N 49°18' W 123°05'1 2.6
2018-Apr-21 17:31N 49°19' W 123°07'0 0.8
2018-Apr-21 17:00N 49°19' W 123°08'1 1.7
2018-Apr-21 16:30N 49°18' W 123°06'1 2.3
2018-Apr-21 16:00N 49°17' W 123°06'0 0.3
2018-Apr-21 15:31N 49°17' W 123°06'0 0.0
2018-Apr-21 15:00N 49°17' W 123°06'0 0.0
2018-Apr-21 14:30N 49°17' W 123°06'0 0.0
2018-Apr-21 14:01N 49°17' W 123°06'0 0.0
2018-Apr-21 13:30N 49°17' W 123°06'0 0.1
2018-Apr-21 12:57N 49°17' W 123°06'0 0.1
2018-Apr-21 12:30N 49°17' W 123°06'0 0.0
2018-Apr-21 12:01N 49°17' W 123°06'0 0.1
2018-Apr-21 11:31N 49°17' W 123°06'0 0.1
2018-Apr-21 11:01N 49°17' W 123°06'0 0.0
2018-Apr-21 10:29N 49°17' W 123°06'0 0.1
2018-Apr-21 10:00N 49°17' W 123°06'0 0.0
2018-Apr-21 09:29N 49°17' W 123°06'0 0.0
2018-Apr-21 08:58N 49°17' W 123°06'0 0.1
2018-Apr-21 08:31N 49°17' W 123°06'0 0.1
2018-Apr-21 07:59N 49°17' W 123°06'0 0.1
2018-Apr-21 07:31N 49°17' W 123°06'0 0.1
2018-Apr-21 07:01N 49°17' W 123°06'0 0.1
2018-Apr-21 06:31N 49°17' W 123°06'0 0.0
2018-Apr-21 06:01N 49°17' W 123°06'0 0.0
2018-Apr-21 05:30N 49°17' W 123°06'0 0.1
2018-Apr-21 04:58N 49°17' W 123°06'0 0.0
2018-Apr-21 04:20N 49°17' W 123°06'0 0.0
2018-Apr-21 04:01N 49°17' W 123°06'0 0.0
2018-Apr-21 03:30N 49°17' W 123°06'0 0.1
2018-Apr-21 03:01N 49°17' W 123°06'0 0.0
2018-Apr-21 02:31N 49°17' W 123°06'0 0.0
2018-Apr-21 02:01N 49°17' W 123°06'0 0.0
2018-Apr-21 01:31N 49°17' W 123°06'0 0.1
2018-Apr-21 00:58N 49°17' W 123°06'0 0.0
2018-Apr-21 00:30N 49°17' W 123°06'2 3.2
2018-Apr-21 00:00N 49°19' W 123°07'4 7.5
2018-Apr-20 23:30N 49°18' W 123°02'1 1.2
2018-Apr-20 23:00N 49°18' W 123°01'3 6.9
2018-Apr-20 22:30N 49°17' W 123°06'0 0.0
2018-Apr-20 22:00N 49°17' W 123°06'0 0.1
2018-Apr-20 21:29N 49°17' W 123°06'0 0.0
2018-Apr-20 21:00N 49°17' W 123°06'0 0.1
2018-Apr-20 20:30N 49°17' W 123°06'0 0.1
2018-Apr-20 20:00N 49°17' W 123°06'0 0.0
2018-Apr-20 19:30N 49°17' W 123°06'0 0.0
2018-Apr-20 19:00N 49°17' W 123°06'0 0.0
2018-Apr-20 18:30N 49°17' W 123°06'0 0.3
2018-Apr-20 18:00N 49°17' W 123°06'2 3.6
2018-Apr-20 17:30N 49°18' W 123°04'4 8.5
2018-Apr-20 17:00N 49°18' W 122°57'510.3
2018-Apr-20 16:30N 49°17' W 123°05'1 1.8
2018-Apr-20 16:00N 49°17' W 123°07'0 0.8
2018-Apr-20 15:30N 49°17' W 123°06'0 0.1
2018-Apr-20 15:00N 49°17' W 123°06'0 0.0
2018-Apr-20 14:30N 49°17' W 123°06'0 0.0
2018-Apr-20 14:00N 49°17' W 123°06'0 0.1
2018-Apr-20 13:30N 49°17' W 123°06'0 0.0
2018-Apr-20 13:00N 49°17' W 123°06'0 0.0
2018-Apr-20 12:30N 49°17' W 123°06'0 0.0
2018-Apr-20 12:00N 49°17' W 123°06'0 0.0
2018-Apr-20 11:30N 49°17' W 123°06'0 0.1
2018-Apr-20 11:00N 49°17' W 123°06'0 0.1
2018-Apr-20 10:29N 49°17' W 123°06'0 0.1
2018-Apr-20 10:00N 49°17' W 123°06'0 0.1
2018-Apr-20 09:29N 49°17' W 123°06'0 0.0
2018-Apr-20 09:00N 49°17' W 123°06'0 0.1
2018-Apr-20 08:30N 49°17' W 123°06'0 0.1
2018-Apr-20 08:00N 49°17' W 123°06'0 0.1
2018-Apr-20 07:30N 49°17' W 123°06'0 0.1
2018-Apr-20 07:00N 49°17' W 123°06'0 0.1
2018-Apr-20 06:30N 49°17' W 123°06'0 0.0
2018-Apr-20 06:00N 49°17' W 123°06'0 0.0
2018-Apr-20 05:30N 49°17' W 123°06'0 0.1
2018-Apr-20 04:58N 49°17' W 123°06'0 0.1
2018-Apr-20 04:29N 49°17' W 123°06'0 0.0
2018-Apr-20 04:00N 49°17' W 123°06'0 0.0
2018-Apr-20 03:30N 49°17' W 123°06'0 0.0
2018-Apr-20 03:00N 49°17' W 123°06'0 0.0
2018-Apr-20 02:30N 49°17' W 123°06'0 0.1
2018-Apr-20 02:00N 49°17' W 123°06'0 0.1
2018-Apr-20 01:28N 49°17' W 123°06'0 0.1
2018-Apr-20 01:00N 49°17' W 123°06'0 0.1
2018-Apr-20 00:30N 49°17' W 123°06'0 0.0
2018-Apr-19 23:55N 49°17' W 123°06'0 0.1
2018-Apr-19 23:30N 49°17' W 123°06'0 0.1
2018-Apr-19 23:00N 49°17' W 123°06'0 0.1
2018-Apr-19 22:30N 49°17' W 123°06'0 0.0
2018-Apr-19 22:00N 49°17' W 123°06'0 0.0
2018-Apr-19 21:30N 49°17' W 123°06'0 0.0
2018-Apr-19 21:00N 49°17' W 123°06'2 4.2
2018-Apr-19 20:30N 49°18' W 123°03'3 5.1
2018-Apr-19 20:00N 49°18' W 123°07'1 1.5
2018-Apr-19 19:30N 49°17' W 123°06'0 0.0
2018-Apr-19 19:00N 49°17' W 123°06'0 0.0
2018-Apr-19 18:30N 49°17' W 123°06'0 0.0
2018-Apr-19 18:00N 49°17' W 123°06'0 0.1
2018-Apr-19 17:30N 49°17' W 123°06'2 3.2
2018-Apr-19 17:00N 49°18' W 123°04'2 4.2
2018-Apr-19 16:30N 49°19' W 123°07'0 0.6
2018-Apr-19 16:00N 49°19' W 123°08'2 3.9
2018-Apr-19 15:31N 49°17' W 123°05'1 1.1
2018-Apr-19 15:01N 49°17' W 123°06'0 0.0
2018-Apr-19 14:31N 49°17' W 123°06'0 0.0
2018-Apr-19 14:01N 49°17' W 123°06'0 0.1
2018-Apr-19 13:30N 49°17' W 123°06'0 0.0
2018-Apr-19 13:01N 49°17' W 123°06'0 0.1
2018-Apr-19 12:31N 49°17' W 123°06'0 0.1
2018-Apr-19 12:00N 49°17' W 123°06'0 0.0
2018-Apr-19 11:31N 49°17' W 123°06'0 0.1
2018-Apr-19 11:01N 49°17' W 123°06'0 0.1
2018-Apr-19 10:30N 49°17' W 123°06'0 0.0
2018-Apr-19 09:57N 49°17' W 123°06'0 0.0
2018-Apr-19 09:30N 49°17' W 123°06'0 0.1
2018-Apr-19 09:01N 49°17' W 123°06'0 0.0
2018-Apr-19 08:30N 49°17' W 123°06'0 0.0
2018-Apr-19 07:58N 49°17' W 123°06'0 0.0
2018-Apr-19 07:31N 49°17' W 123°06'0 0.0
2018-Apr-19 07:01N 49°17' W 123°06'0 0.0
2018-Apr-19 06:31N 49°17' W 123°06'0 0.0
2018-Apr-19 06:00N 49°17' W 123°06'0 0.0
2018-Apr-19 05:29N 49°17' W 123°06'0 0.0
2018-Apr-19 04:59N 49°17' W 123°06'0 0.1
2018-Apr-19 04:21N 49°17' W 123°06'0 0.1
2018-Apr-19 04:00N 49°17' W 123°06'0 0.0
2018-Apr-19 03:31N 49°17' W 123°06'0 0.1
2018-Apr-19 02:56N 49°17' W 123°06'0 0.1
2018-Apr-19 02:31N 49°17' W 123°06'0 0.1
2018-Apr-19 02:00N 49°17' W 123°06'0 0.1
2018-Apr-19 01:14N 49°17' W 123°06'0 0.0
2018-Apr-19 01:01N 49°17' W 123°06'0 0.0
2018-Apr-19 00:30N 49°17' W 123°06'0 0.0
2018-Apr-18 23:54N 49°17' W 123°06'0 0.1
2018-Apr-18 23:30N 49°17' W 123°06'0 0.1
2018-Apr-18 23:01N 49°17' W 123°06'1 2.2
2018-Apr-18 22:30N 49°18' W 123°06'2 4.0
2018-Apr-18 22:00N 49°18' W 123°03'2 4.0
2018-Apr-18 21:31N 49°17' W 123°06'0 0.6
2018-Apr-18 20:59N 49°17' W 123°06'0 0.1
2018-Apr-18 20:30N 49°17' W 123°06'0 0.0
2018-Apr-18 20:00N 49°17' W 123°06'0 0.1
2018-Apr-18 19:30N 49°17' W 123°06'0 0.1
2018-Apr-18 19:00N 49°17' W 123°06'1 1.5
2018-Apr-18 18:30N 49°18' W 123°06'2 4.2
2018-Apr-18 17:57N 49°18' W 123°03'1 3.0
2018-Apr-18 17:30N 49°18' W 123°05'1 2.0
2018-Apr-18 17:00N 49°17' W 123°06'0 0.9
2018-Apr-18 16:30N 49°17' W 123°07'0 0.0
2018-Apr-18 16:00N 49°17' W 123°07'0 0.4
2018-Apr-18 15:30N 49°17' W 123°07'1 1.0
2018-Apr-18 15:00N 49°17' W 123°06'0 0.1
2018-Apr-18 14:30N 49°17' W 123°06'0 0.0
2018-Apr-18 14:00N 49°17' W 123°06'0 0.0
2018-Apr-18 13:29N 49°17' W 123°06'0 0.1
2018-Apr-18 13:00N 49°17' W 123°06'0 0.0
2018-Apr-18 12:30N 49°17' W 123°06'0 0.1
2018-Apr-18 11:56N 49°17' W 123°06'0 0.0
2018-Apr-18 11:30N 49°17' W 123°06'0 0.0
2018-Apr-18 11:00N 49°17' W 123°06'0 0.0
2018-Apr-18 10:30N 49°17' W 123°06'0 0.0
2018-Apr-18 10:00N 49°17' W 123°06'0 0.1
2018-Apr-18 09:29N 49°17' W 123°06'0 0.0
2018-Apr-18 08:59N 49°17' W 123°06'0 0.1
2018-Apr-18 08:26N 49°17' W 123°06'0 0.1
2018-Apr-18 08:00N 49°17' W 123°06'0 0.1
2018-Apr-18 07:30N 49°17' W 123°06'0 0.0
2018-Apr-18 07:00N 49°17' W 123°06'0 0.0
2018-Apr-18 06:30N 49°17' W 123°06'0 0.0
2018-Apr-18 06:00N 49°17' W 123°06'0 0.0
2018-Apr-18 05:30N 49°17' W 123°06'0 0.0
2018-Apr-18 04:55N 49°17' W 123°06'0 0.0
2018-Apr-18 04:30N 49°17' W 123°06'0 0.0
2018-Apr-18 04:00N 49°17' W 123°06'0 0.0
2018-Apr-18 03:25N 49°17' W 123°06'0 0.1
2018-Apr-18 03:00N 49°17' W 123°06'0 0.1
2018-Apr-18 02:31N 49°17' W 123°06'0 0.0
2018-Apr-18 02:00N 49°17' W 123°06'0 0.0
2018-Apr-18 01:10N 49°17' W 123°06'0 0.0
2018-Apr-18 01:00N 49°17' W 123°06'0 0.0
2018-Apr-18 00:20N 49°17' W 123°06'0 0.1
2018-Apr-18 00:00N 49°17' W 123°06'0 0.0
2018-Apr-17 23:28N 49°17' W 123°06'0 0.1
2018-Apr-17 23:00N 49°17' W 123°06'0 0.0
2018-Apr-17 22:30N 49°17' W 123°06'0 0.1
2018-Apr-17 22:00N 49°17' W 123°06'0 0.1
2018-Apr-17 21:30N 49°17' W 123°06'0 0.0
2018-Apr-17 21:00N 49°17' W 123°06'0 0.1
2018-Apr-17 20:30N 49°17' W 123°06'0 0.1
2018-Apr-17 20:00N 49°17' W 123°06'0 0.0
2018-Apr-17 19:31N 49°17' W 123°06'0 0.0
2018-Apr-17 19:00N 49°17' W 123°06'0 0.0
2018-Apr-17 18:30N 49°17' W 123°06'0 0.0
2018-Apr-17 18:01N 49°17' W 123°06'0 0.0
2018-Apr-17 17:30N 49°17' W 123°06'2 4.1
2018-Apr-17 17:00N 49°18' W 123°03'0 0.1
2018-Apr-17 16:31N 49°18' W 123°03'  
Track history (hours):
 
Tides and Currents Weather Stations Pressure Air Temp Water Temp Dewpoint Dewpoint Depression Visibility Wind Speed Wind Dir Waves Ship Positions

Takaya

Last reported at 2018-Apr-21 23:01 UTC. Time now 2018-Apr-21 23:17 UTC.
Position N 49°18' W 123°07'.

; draft 1.4 m.

Type: Port tender. MMSI: 316014014.

Date/timePositionNaut miles runAvg speedWind from/ knotsBaromVisibWave heightAir tempDewpointWater temp
2018-Apr-21 23:01N 49°18' W 123°07'2 3.0
2018-Apr-21 22:30N 49°17' W 123°05'1 1.4
2018-Apr-21 22:00N 49°17' W 123°06'0 0.0
2018-Apr-21 21:30N 49°17' W 123°06'0 0.1
2018-Apr-21 21:00N 49°17' W 123°06'0 0.0
2018-Apr-21 20:31N 49°17' W 123°06'0 0.0
2018-Apr-21 20:01N 49°17' W 123°06'0 0.0
2018-Apr-21 19:30N 49°17' W 123°06'0 0.0
2018-Apr-21 19:00N 49°17' W 123°06'0 0.0
2018-Apr-21 18:30N 49°17' W 123°06'1 2.1
2018-Apr-21 18:00N 49°18' W 123°05'1 2.6
2018-Apr-21 17:31N 49°19' W 123°07'0 0.8
2018-Apr-21 17:00N 49°19' W 123°08'1 1.7
2018-Apr-21 16:30N 49°18' W 123°06'1 2.3
2018-Apr-21 16:00N 49°17' W 123°06'0 0.3
2018-Apr-21 15:31N 49°17' W 123°06'0 0.0
2018-Apr-21 15:00N 49°17' W 123°06'0 0.0
2018-Apr-21 14:30N 49°17' W 123°06'0 0.0
2018-Apr-21 14:01N 49°17' W 123°06'0 0.0
2018-Apr-21 13:30N 49°17' W 123°06'0 0.1
2018-Apr-21 12:57N 49°17' W 123°06'0 0.1
2018-Apr-21 12:30N 49°17' W 123°06'0 0.0
2018-Apr-21 12:01N 49°17' W 123°06'0 0.1
2018-Apr-21 11:31N 49°17' W 123°06'0 0.1
2018-Apr-21 11:01N 49°17' W 123°06'0 0.0
2018-Apr-21 10:29N 49°17' W 123°06'0 0.1
2018-Apr-21 10:00N 49°17' W 123°06'0 0.0
2018-Apr-21 09:29N 49°17' W 123°06'0 0.0
2018-Apr-21 08:58N 49°17' W 123°06'0 0.1
2018-Apr-21 08:31N 49°17' W 123°06'0 0.1
2018-Apr-21 07:59N 49°17' W 123°06'0 0.1
2018-Apr-21 07:31N 49°17' W 123°06'0 0.1
2018-Apr-21 07:01N 49°17' W 123°06'0 0.1
2018-Apr-21 06:31N 49°17' W 123°06'0 0.0
2018-Apr-21 06:01N 49°17' W 123°06'0 0.0
2018-Apr-21 05:30N 49°17' W 123°06'0 0.1
2018-Apr-21 04:58N 49°17' W 123°06'0 0.0
2018-Apr-21 04:20N 49°17' W 123°06'0 0.0
2018-Apr-21 04:01N 49°17' W 123°06'0 0.0
2018-Apr-21 03:30N 49°17' W 123°06'0 0.1
2018-Apr-21 03:01N 49°17' W 123°06'0 0.0
2018-Apr-21 02:31N 49°17' W 123°06'0 0.0
2018-Apr-21 02:01N 49°17' W 123°06'0 0.0
2018-Apr-21 01:31N 49°17' W 123°06'0 0.1
2018-Apr-21 00:58N 49°17' W 123°06'0 0.0
2018-Apr-21 00:30N 49°17' W 123°06'2 3.2
2018-Apr-21 00:00N 49°19' W 123°07'4 7.5
2018-Apr-20 23:30N 49°18' W 123°02'1 1.2
2018-Apr-20 23:00N 49°18' W 123°01'3 6.9
2018-Apr-20 22:30N 49°17' W 123°06'0 0.0
2018-Apr-20 22:00N 49°17' W 123°06'0 0.1
2018-Apr-20 21:29N 49°17' W 123°06'0 0.0
2018-Apr-20 21:00N 49°17' W 123°06'0 0.1
2018-Apr-20 20:30N 49°17' W 123°06'0 0.1
2018-Apr-20 20:00N 49°17' W 123°06'0 0.0
2018-Apr-20 19:30N 49°17' W 123°06'0 0.0
2018-Apr-20 19:00N 49°17' W 123°06'0 0.0
2018-Apr-20 18:30N 49°17' W 123°06'0 0.3
2018-Apr-20 18:00N 49°17' W 123°06'2 3.6
2018-Apr-20 17:30N 49°18' W 123°04'4 8.5
2018-Apr-20 17:00N 49°18' W 122°57'510.3
2018-Apr-20 16:30N 49°17' W 123°05'1 1.8
2018-Apr-20 16:00N 49°17' W 123°07'0 0.8
2018-Apr-20 15:30N 49°17' W 123°06'0 0.1
2018-Apr-20 15:00N 49°17' W 123°06'0 0.0
2018-Apr-20 14:30N 49°17' W 123°06'0 0.0
2018-Apr-20 14:00N 49°17' W 123°06'0 0.1
2018-Apr-20 13:30N 49°17' W 123°06'0 0.0
2018-Apr-20 13:00N 49°17' W 123°06'0 0.0
2018-Apr-20 12:30N 49°17' W 123°06'0 0.0
2018-Apr-20 12:00N 49°17' W 123°06'0 0.0
2018-Apr-20 11:30N 49°17' W 123°06'0 0.1
2018-Apr-20 11:00N 49°17' W 123°06'0 0.1
2018-Apr-20 10:29N 49°17' W 123°06'0 0.1
2018-Apr-20 10:00N 49°17' W 123°06'0 0.1
2018-Apr-20 09:29N 49°17' W 123°06'0 0.0
2018-Apr-20 09:00N 49°17' W 123°06'0 0.1
2018-Apr-20 08:30N 49°17' W 123°06'0 0.1
2018-Apr-20 08:00N 49°17' W 123°06'0 0.1
2018-Apr-20 07:30N 49°17' W 123°06'0 0.1
2018-Apr-20 07:00N 49°17' W 123°06'0 0.1
2018-Apr-20 06:30N 49°17' W 123°06'0 0.0
2018-Apr-20 06:00N 49°17' W 123°06'0 0.0
2018-Apr-20 05:30N 49°17' W 123°06'0 0.1
2018-Apr-20 04:58N 49°17' W 123°06'0 0.1
2018-Apr-20 04:29N 49°17' W 123°06'0 0.0
2018-Apr-20 04:00N 49°17' W 123°06'0 0.0
2018-Apr-20 03:30N 49°17' W 123°06'0 0.0
2018-Apr-20 03:00N 49°17' W 123°06'0 0.0
2018-Apr-20 02:30N 49°17' W 123°06'0 0.1
2018-Apr-20 02:00N 49°17' W 123°06'0 0.1
2018-Apr-20 01:28N 49°17' W 123°06'0 0.1
2018-Apr-20 01:00N 49°17' W 123°06'0 0.1
2018-Apr-20 00:30N 49°17' W 123°06'0 0.0
2018-Apr-19 23:55N 49°17' W 123°06'0 0.1
2018-Apr-19 23:30N 49°17' W 123°06'0 0.1
2018-Apr-19 23:00N 49°17' W 123°06'0 0.1
2018-Apr-19 22:30N 49°17' W 123°06'0 0.0
2018-Apr-19 22:00N 49°17' W 123°06'0 0.0
2018-Apr-19 21:30N 49°17' W 123°06'0 0.0
2018-Apr-19 21:00N 49°17' W 123°06'2 4.2
2018-Apr-19 20:30N 49°18' W 123°03'3 5.1
2018-Apr-19 20:00N 49°18' W 123°07'1 1.5
2018-Apr-19 19:30N 49°17' W 123°06'0 0.0
2018-Apr-19 19:00N 49°17' W 123°06'0 0.0
2018-Apr-19 18:30N 49°17' W 123°06'0 0.0
2018-Apr-19 18:00N 49°17' W 123°06'0 0.1
2018-Apr-19 17:30N 49°17' W 123°06'2 3.2
2018-Apr-19 17:00N 49°18' W 123°04'2 4.2
2018-Apr-19 16:30N 49°19' W 123°07'0 0.6
2018-Apr-19 16:00N 49°19' W 123°08'2 3.9
2018-Apr-19 15:31N 49°17' W 123°05'1 1.1
2018-Apr-19 15:01N 49°17' W 123°06'0 0.0
2018-Apr-19 14:31N 49°17' W 123°06'0 0.0
2018-Apr-19 14:01N 49°17' W 123°06'0 0.1
2018-Apr-19 13:30N 49°17' W 123°06'0 0.0
2018-Apr-19 13:01N 49°17' W 123°06'0 0.1
2018-Apr-19 12:31N 49°17' W 123°06'0 0.1
2018-Apr-19 12:00N 49°17' W 123°06'0 0.0
2018-Apr-19 11:31N 49°17' W 123°06'0 0.1
2018-Apr-19 11:01N 49°17' W 123°06'0 0.1
2018-Apr-19 10:30N 49°17' W 123°06'0 0.0
2018-Apr-19 09:57N 49°17' W 123°06'0 0.0
2018-Apr-19 09:30N 49°17' W 123°06'0 0.1
2018-Apr-19 09:01N 49°17' W 123°06'0 0.0
2018-Apr-19 08:30N 49°17' W 123°06'0 0.0
2018-Apr-19 07:58N 49°17' W 123°06'0 0.0
2018-Apr-19 07:31N 49°17' W 123°06'0 0.0
2018-Apr-19 07:01N 49°17' W 123°06'0 0.0
2018-Apr-19 06:31N 49°17' W 123°06'0 0.0
2018-Apr-19 06:00N 49°17' W 123°06'0 0.0
2018-Apr-19 05:29N 49°17' W 123°06'0 0.0
2018-Apr-19 04:59N 49°17' W 123°06'0 0.1
2018-Apr-19 04:21N 49°17' W 123°06'0 0.1
2018-Apr-19 04:00N 49°17' W 123°06'0 0.0
2018-Apr-19 03:31N 49°17' W 123°06'0 0.1
2018-Apr-19 02:56N 49°17' W 123°06'0 0.1
2018-Apr-19 02:31N 49°17' W 123°06'0 0.1
2018-Apr-19 02:00N 49°17' W 123°06'0 0.1
2018-Apr-19 01:14N 49°17' W 123°06'0 0.0
2018-Apr-19 01:01N 49°17' W 123°06'0 0.0
2018-Apr-19 00:30N 49°17' W 123°06'0 0.0
2018-Apr-18 23:54N 49°17' W 123°06'0 0.1
2018-Apr-18 23:30N 49°17' W 123°06'0 0.1
2018-Apr-18 23:01N 49°17' W 123°06'1 2.2
2018-Apr-18 22:30N 49°18' W 123°06'2 4.0
2018-Apr-18 22:00N 49°18' W 123°03'2 4.0
2018-Apr-18 21:31N 49°17' W 123°06'0 0.6
2018-Apr-18 20:59N 49°17' W 123°06'0 0.1
2018-Apr-18 20:30N 49°17' W 123°06'0 0.0
2018-Apr-18 20:00N 49°17' W 123°06'0 0.1
2018-Apr-18 19:30N 49°17' W 123°06'0 0.1
2018-Apr-18 19:00N 49°17' W 123°06'1 1.5
2018-Apr-18 18:30N 49°18' W 123°06'2 4.2
2018-Apr-18 17:57N 49°18' W 123°03'1 3.0
2018-Apr-18 17:30N 49°18' W 123°05'1 2.0
2018-Apr-18 17:00N 49°17' W 123°06'0 0.9
2018-Apr-18 16:30N 49°17' W 123°07'0 0.0
2018-Apr-18 16:00N 49°17' W 123°07'0 0.4
2018-Apr-18 15:30N 49°17' W 123°07'1 1.0
2018-Apr-18 15:00N 49°17' W 123°06'0 0.1
2018-Apr-18 14:30N 49°17' W 123°06'0 0.0
2018-Apr-18 14:00N 49°17' W 123°06'0 0.0
2018-Apr-18 13:29N 49°17' W 123°06'0 0.1
2018-Apr-18 13:00N 49°17' W 123°06'0 0.0
2018-Apr-18 12:30N 49°17' W 123°06'0 0.1
2018-Apr-18 11:56N 49°17' W 123°06'0 0.0
2018-Apr-18 11:30N 49°17' W 123°06'0 0.0
2018-Apr-18 11:00N 49°17' W 123°06'0 0.0
2018-Apr-18 10:30N 49°17' W 123°06'0 0.0
2018-Apr-18 10:00N 49°17' W 123°06'0 0.1
2018-Apr-18 09:29N 49°17' W 123°06'0 0.0
2018-Apr-18 08:59N 49°17' W 123°06'0 0.1
2018-Apr-18 08:26N 49°17' W 123°06'0 0.1
2018-Apr-18 08:00N 49°17' W 123°06'0 0.1
2018-Apr-18 07:30N 49°17' W 123°06'0 0.0
2018-Apr-18 07:00N 49°17' W 123°06'0 0.0
2018-Apr-18 06:30N 49°17' W 123°06'0 0.0
2018-Apr-18 06:00N 49°17' W 123°06'0 0.0
2018-Apr-18 05:30N 49°17' W 123°06'0 0.0
2018-Apr-18 04:55N 49°17' W 123°06'0 0.0
2018-Apr-18 04:30N 49°17' W 123°06'0 0.0
2018-Apr-18 04:00N 49°17' W 123°06'0 0.0
2018-Apr-18 03:25N 49°17' W 123°06'0 0.1
2018-Apr-18 03:00N 49°17' W 123°06'0 0.1
2018-Apr-18 02:31N 49°17' W 123°06'0 0.0
2018-Apr-18 02:00N 49°17' W 123°06'0 0.0
2018-Apr-18 01:10N 49°17' W 123°06'0 0.0
2018-Apr-18 01:00N 49°17' W 123°06'0 0.0
2018-Apr-18 00:20N 49°17' W 123°06'0 0.1
2018-Apr-18 00:00N 49°17' W 123°06'0 0.0
2018-Apr-17 23:28N 49°17' W 123°06'0 0.1
2018-Apr-17 23:00N 49°17' W 123°06'0 0.0
2018-Apr-17 22:30N 49°17' W 123°06'0 0.1
2018-Apr-17 22:00N 49°17' W 123°06'0 0.1
2018-Apr-17 21:30N 49°17' W 123°06'0 0.0
2018-Apr-17 21:00N 49°17' W 123°06'0 0.1
2018-Apr-17 20:30N 49°17' W 123°06'0 0.1
2018-Apr-17 20:00N 49°17' W 123°06'0 0.0
2018-Apr-17 19:31N 49°17' W 123°06'0 0.0
2018-Apr-17 19:00N 49°17' W 123°06'0 0.0
2018-Apr-17 18:30N 49°17' W 123°06'0 0.0
2018-Apr-17 18:01N 49°17' W 123°06'0 0.0
2018-Apr-17 17:30N 49°17' W 123°06'2 4.1
2018-Apr-17 17:00N 49°18' W 123°03'0 0.1
2018-Apr-17 16:31N 49°18' W 123°03'  

Dump ship's entire track history